createdAt,value
2022-08-12T00:01:03.275Z,4.10
2022-08-12T00:03:50.296Z,4.20
2022-08-12T00:06:38.427Z,3.53
2022-08-12T00:09:26.387Z,3.30
2022-08-12T00:12:14.787Z,3.20
2022-08-12T00:15:03.096Z,3.20
2022-08-12T00:17:49.010Z,3.40
2022-08-12T00:20:36.991Z,3.40
2022-08-12T00:23:22.752Z,3.35
2022-08-12T00:26:22.583Z,3.40
2022-08-12T00:29:10.736Z,3.75
2022-08-12T00:32:01.399Z,4.18
2022-08-12T00:34:49.353Z,3.60
2022-08-12T00:37:35.750Z,3.53
2022-08-12T00:40:21.991Z,3.85
2022-08-12T00:42:49.314Z,3.30
2022-08-12T00:45:17.402Z,3.40
2022-08-12T00:47:47.551Z,3.47
2022-08-12T00:50:19.494Z,3.38
2022-08-12T00:52:49.483Z,3.28
2022-08-12T00:55:18.802Z,3.40
2022-08-12T00:57:49.278Z,3.38
2022-08-12T01:00:23.875Z,3.08
2022-08-12T01:02:58.119Z,3.47
2022-08-12T01:05:50.173Z,3.50
2022-08-12T01:08:35.907Z,3.28
2022-08-12T01:11:35.826Z,3.20
2022-08-12T01:14:04.405Z,3.13
2022-08-12T01:16:32.993Z,3.38
2022-08-12T01:19:03.253Z,3.70
2022-08-12T01:21:57.913Z,3.33
2022-08-12T01:24:57.528Z,3.25
2022-08-12T01:27:27.238Z,3.33
2022-08-12T01:29:58.266Z,3.03
2022-08-12T01:32:30.088Z,3.45
2022-08-12T01:35:07.065Z,3.38
2022-08-12T01:37:49.899Z,3.28
2022-08-12T01:40:33.262Z,3.43
2022-08-12T01:43:08.253Z,3.20
2022-08-12T01:45:43.307Z,3.10
2022-08-12T01:48:24.396Z,3.25
2022-08-12T01:51:06.444Z,3.13
2022-08-12T01:53:48.595Z,3.17
2022-08-12T01:56:26.194Z,3.47
2022-08-12T01:59:21.222Z,3.45
2022-08-12T02:01:54.271Z,3.63
2022-08-12T02:04:53.945Z,3.00
2022-08-12T02:07:58.351Z,3.00
2022-08-12T02:10:56.649Z,2.97
2022-08-12T02:13:49.682Z,3.78
2022-08-12T02:16:31.809Z,3.38
2022-08-12T02:19:22.504Z,3.05
2022-08-12T02:22:01.040Z,3.65
2022-08-12T02:24:35.297Z,3.10
2022-08-12T02:27:04.577Z,3.35
2022-08-12T02:29:34.553Z,3.25
2022-08-12T02:32:04.682Z,3.30
2022-08-12T02:34:34.503Z,2.92
2022-08-12T02:37:04.020Z,3.22
2022-08-12T02:39:34.697Z,3.45
2022-08-12T02:42:06.892Z,3.33
2022-08-12T02:44:43.447Z,3.22
2022-08-12T02:47:55.716Z,3.20
2022-08-12T02:50:04.816Z,3.22
2022-08-12T02:52:34.887Z,2.88
2022-08-12T02:55:12.897Z,3.00
2022-08-12T03:00:28.710Z,3.55
2022-08-12T03:03:00.936Z,3.30
2022-08-12T03:05:30.080Z,3.92
2022-08-12T03:08:30.544Z,3.67
2022-08-12T03:11:04.738Z,3.30
2022-08-12T03:13:40.327Z,3.30
2022-08-12T03:16:10.946Z,3.53
2022-08-12T03:18:45.790Z,3.30
2022-08-12T03:21:55.386Z,3.40
2022-08-12T03:24:09.365Z,3.50
2022-08-12T03:26:38.825Z,3.30
2022-08-12T03:29:08.299Z,3.38
2022-08-12T03:31:37.944Z,3.47
2022-08-12T03:34:08.656Z,3.15
2022-08-12T03:36:38.420Z,3.60
2022-08-12T03:39:36.865Z,3.30
2022-08-12T03:42:17.672Z,3.60
2022-08-12T03:45:15.358Z,3.13
2022-08-12T03:48:18.555Z,3.75
2022-08-12T03:51:05.686Z,3.50
2022-08-12T03:53:51.030Z,3.28
2022-08-12T03:56:36.810Z,3.45
2022-08-12T03:59:25.502Z,3.58
2022-08-12T04:01:57.798Z,3.60
2022-08-12T04:04:34.050Z,3.90
2022-08-12T04:07:03.466Z,3.97
2022-08-12T04:09:32.316Z,3.75
2022-08-12T04:12:17.971Z,3.50
2022-08-12T04:14:46.990Z,3.83
2022-08-12T04:17:16.760Z,3.08
2022-08-12T04:19:48.383Z,3.15
2022-08-12T04:22:16.428Z,3.92
2022-08-12T04:24:50.711Z,3.33
2022-08-12T04:27:19.232Z,3.47
2022-08-12T04:30:29.015Z,3.72
2022-08-12T04:32:42.220Z,3.58
2022-08-12T04:35:15.173Z,3.60
2022-08-12T04:37:58.451Z,3.42
2022-08-12T04:40:30.882Z,3.03
2022-08-12T04:43:01.576Z,3.88
2022-08-12T04:45:31.210Z,2.85
2022-08-12T04:47:59.247Z,3.40
2022-08-12T04:50:35.081Z,4.13
2022-08-12T04:53:06.675Z,3.35
2022-08-12T04:55:38.452Z,3.22
2022-08-12T04:58:06.706Z,3.28
2022-08-12T05:00:35.472Z,3.40
2022-08-12T05:03:03.718Z,3.10
2022-08-12T05:05:36.126Z,3.60
2022-08-12T05:08:07.924Z,3.60
2022-08-12T05:10:36.394Z,3.65
2022-08-12T05:13:08.387Z,3.33
2022-08-12T05:16:04.739Z,3.83
2022-08-12T05:18:29.331Z,3.85
2022-08-12T05:21:00.333Z,3.63
2022-08-12T05:23:29.112Z,3.45
2022-08-12T05:25:57.964Z,3.72
2022-08-12T05:28:28.087Z,3.38
2022-08-12T05:30:57.175Z,3.50
2022-08-12T05:33:37.587Z,3.28
2022-08-12T05:36:09.230Z,3.13
2022-08-12T05:38:55.804Z,3.72
2022-08-12T05:41:25.708Z,3.47
2022-08-12T05:43:55.831Z,3.30
2022-08-12T05:46:25.483Z,3.67
2022-08-12T05:48:55.501Z,3.60
2022-08-12T05:51:39.520Z,3.33
2022-08-12T05:54:10.596Z,3.25
2022-08-12T05:56:40.194Z,3.45
2022-08-12T05:59:11.518Z,3.30
2022-08-12T06:02:08.853Z,3.47
2022-08-12T06:04:29.025Z,3.20
2022-08-12T06:06:58.288Z,3.00
2022-08-12T06:09:31.073Z,2.90
2022-08-12T06:12:05.695Z,2.72
2022-08-12T06:14:37.792Z,3.38
2022-08-12T06:17:08.873Z,3.00
2022-08-12T06:20:26.731Z,3.08
2022-08-12T06:22:27.791Z,2.63
2022-08-12T06:24:56.048Z,2.47
2022-08-12T06:27:24.940Z,2.90
2022-08-12T06:30:09.013Z,3.08
2022-08-12T06:32:51.710Z,2.70
2022-08-12T06:35:48.867Z,2.78
2022-08-12T06:38:27.164Z,2.42
2022-08-12T06:41:14.844Z,2.80
2022-08-12T06:44:06.574Z,2.53
2022-08-12T06:46:32.964Z,2.80
2022-08-12T06:49:01.794Z,2.72
2022-08-12T06:51:34.758Z,2.78
2022-08-12T06:54:05.155Z,2.47
2022-08-12T06:57:02.435Z,2.88
2022-08-12T06:59:23.623Z,2.70
2022-08-12T07:01:52.575Z,2.60
2022-08-12T07:04:39.067Z,2.38
2022-08-12T07:07:09.568Z,2.40
2022-08-12T07:10:06.908Z,3.28
2022-08-12T07:12:33.034Z,2.85
2022-08-12T07:15:02.422Z,2.42
2022-08-12T07:17:38.023Z,2.33
2022-08-12T07:20:20.249Z,2.45
2022-08-12T07:23:01.014Z,2.40
2022-08-12T07:25:40.323Z,2.08
2022-08-12T07:28:16.033Z,2.30
2022-08-12T07:30:48.401Z,2.40
2022-08-12T07:33:17.921Z,2.20
2022-08-12T07:35:48.046Z,2.05
2022-08-12T07:38:29.120Z,2.00
2022-08-12T07:41:04.094Z,2.47
2022-08-12T07:43:33.795Z,2.67
2022-08-12T07:46:05.381Z,2.10
2022-08-12T07:48:37.987Z,2.10
2022-08-12T07:51:06.811Z,2.40
2022-08-12T07:53:49.128Z,2.20
2022-08-12T07:56:25.531Z,2.53
2022-08-12T07:58:54.071Z,2.45
2022-08-12T08:01:23.869Z,2.10
2022-08-12T08:04:15.111Z,2.55
2022-08-12T08:06:46.124Z,2.50
2022-08-12T08:09:19.544Z,2.28
2022-08-12T08:12:06.873Z,2.03
2022-08-12T08:14:35.374Z,2.13
2022-08-12T08:17:06.568Z,2.20
2022-08-12T08:20:03.206Z,2.50
2022-08-12T08:22:32.101Z,2.00
2022-08-12T08:25:34.844Z,2.28
2022-08-12T08:28:02.766Z,1.92
2022-08-12T08:30:32.338Z,2.30
2022-08-12T08:33:00.763Z,1.63
2022-08-12T08:35:46.270Z,1.85
2022-08-12T08:38:32.475Z,2.35
2022-08-12T08:42:15.318Z,2.10
2022-08-12T08:44:12.552Z,2.42
2022-08-12T08:46:40.887Z,1.95
2022-08-12T08:49:09.153Z,2.17
2022-08-12T08:51:38.626Z,2.00
2022-08-12T08:54:08.969Z,1.58
2022-08-12T08:56:44.095Z,1.75
2022-08-12T08:59:14.667Z,1.80
2022-08-12T09:01:44.197Z,1.75
2022-08-12T09:05:13.567Z,2.25
2022-08-12T09:07:17.897Z,1.90
2022-08-12T09:10:03.739Z,1.80
2022-08-12T09:12:54.643Z,1.90
2022-08-12T09:15:35.604Z,1.73
2022-08-12T09:18:05.977Z,1.70
2022-08-12T09:20:39.152Z,1.70
2022-08-12T09:23:59.028Z,1.67
2022-08-12T09:26:04.511Z,1.73
2022-08-12T09:28:37.765Z,1.83
2022-08-12T09:32:03.568Z,1.80
2022-08-12T09:34:29.835Z,1.60
2022-08-12T09:36:58.008Z,1.80
2022-08-12T09:40:06.285Z,1.52
2022-08-12T09:42:43.544Z,1.70
2022-08-12T09:45:24.671Z,1.80
2022-08-12T09:48:20.148Z,1.77
2022-08-12T09:50:55.302Z,1.95
2022-08-12T09:53:29.510Z,1.75
2022-08-12T09:56:57.995Z,1.90
2022-08-12T09:59:01.441Z,1.70
2022-08-12T10:01:35.324Z,1.75
2022-08-12T10:04:20.867Z,1.80
2022-08-12T10:06:54.729Z,2.10
2022-08-12T10:09:28.959Z,1.65
2022-08-12T10:12:33.072Z,1.70
2022-08-12T10:15:01.847Z,1.60
2022-08-12T10:17:30.375Z,1.80
2022-08-12T10:20:01.577Z,1.63
2022-08-12T10:22:39.475Z,1.90
2022-08-12T10:26:34.883Z,1.40
2022-08-12T10:28:32.503Z,1.40
2022-08-12T10:31:01.237Z,1.73
2022-08-12T10:33:32.247Z,1.50
2022-08-12T10:36:05.173Z,1.45
2022-08-12T10:38:41.335Z,1.55
2022-08-12T10:41:57.145Z,2.03
2022-08-12T10:44:21.392Z,1.80
2022-08-12T10:46:52.815Z,1.40
2022-08-12T10:50:03.519Z,1.88
2022-08-12T10:52:33.881Z,1.40
2022-08-12T10:55:00.542Z,1.60
2022-08-12T10:58:12.573Z,1.40
2022-08-12T11:00:31.982Z,1.60
2022-08-12T11:04:24.246Z,1.38
2022-08-12T11:07:09.832Z,1.40
2022-08-12T11:08:46.175Z,1.65
2022-08-12T11:12:07.794Z,1.30
2022-08-12T11:14:09.124Z,1.50
2022-08-12T11:17:33.679Z,1.23
2022-08-12T11:19:49.401Z,1.40
2022-08-12T11:22:23.983Z,1.63
2022-08-12T11:24:55.269Z,1.90
2022-08-12T11:27:23.901Z,1.50
2022-08-12T11:30:03.737Z,1.50
2022-08-12T11:32:39.084Z,1.50
2022-08-12T11:35:09.173Z,1.25
2022-08-12T11:37:58.108Z,1.50
2022-08-12T11:40:29.789Z,1.20
2022-08-12T11:43:18.912Z,1.30
2022-08-12T11:45:53.100Z,1.33
2022-08-12T11:48:27.183Z,1.40
2022-08-12T11:50:56.129Z,1.42
2022-08-12T11:53:59.519Z,1.27
2022-08-12T11:56:13.668Z,1.20
2022-08-12T12:01:59.080Z,1.35
2022-08-12T12:04:29.096Z,1.40
2022-08-12T12:07:07.312Z,1.50
2022-08-12T12:09:51.819Z,1.40
2022-08-12T12:12:25.354Z,1.20
2022-08-12T12:14:54.641Z,1.65
2022-08-12T12:17:24.411Z,1.25
2022-08-12T12:19:53.274Z,1.58
2022-08-12T12:22:23.699Z,1.27
2022-08-12T12:24:59.339Z,1.50
2022-08-12T12:28:03.882Z,1.20
2022-08-12T12:30:33.667Z,1.45
2022-08-12T12:33:02.182Z,1.70
2022-08-12T12:36:18.298Z,1.38
2022-08-12T12:38:20.100Z,1.25
2022-08-12T12:40:53.416Z,1.40
2022-08-12T12:43:28.473Z,1.40
2022-08-12T12:46:05.440Z,1.20
2022-08-12T12:48:33.983Z,1.40
2022-08-12T12:51:49.185Z,1.58
2022-08-12T12:54:09.679Z,1.50
2022-08-12T12:56:42.278Z,1.60
2022-08-12T12:59:55.512Z,1.40
2022-08-12T13:02:08.179Z,1.17
2022-08-12T13:04:38.240Z,1.30
2022-08-12T13:07:07.084Z,1.25
2022-08-12T13:09:36.121Z,1.40
2022-08-12T13:12:10.946Z,1.60
2022-08-12T13:14:40.457Z,1.58
2022-08-12T13:17:14.568Z,1.60
2022-08-12T13:19:46.611Z,1.52
2022-08-12T13:22:20.041Z,1.33
2022-08-12T13:24:51.911Z,1.40
2022-08-12T13:27:23.113Z,1.40
2022-08-12T13:30:03.626Z,1.30
2022-08-12T13:32:32.072Z,1.30
2022-08-12T13:35:04.716Z,1.50
2022-08-12T13:37:55.155Z,1.25
2022-08-12T13:40:24.881Z,1.23
2022-08-12T13:42:57.607Z,1.15
2022-08-12T13:47:59.948Z,1.40
2022-08-12T13:50:32.585Z,1.15
2022-08-12T13:53:06.274Z,1.40
2022-08-12T13:55:59.740Z,1.30
2022-08-12T13:58:32.934Z,1.20
2022-08-12T14:01:06.139Z,1.40
2022-08-12T14:03:50.916Z,1.50
2022-08-12T14:06:20.824Z,1.08
2022-08-12T14:08:50.578Z,1.17
2022-08-12T14:11:25.140Z,1.55
2022-08-12T14:14:03.829Z,1.20
2022-08-12T14:16:49.411Z,1.40
2022-08-12T14:19:24.398Z,1.27
2022-08-12T14:22:00.793Z,1.20
2022-08-12T14:24:40.560Z,1.10
2022-08-12T14:27:11.269Z,1.73
2022-08-12T14:30:04.483Z,1.02
2022-08-12T14:32:34.947Z,1.23
2022-08-12T14:35:08.966Z,1.38
2022-08-12T14:37:56.236Z,1.30
2022-08-12T14:40:29.210Z,1.30
2022-08-12T14:42:58.338Z,1.35
2022-08-12T14:45:45.424Z,2.10
2022-08-12T14:48:18.875Z,1.50
2022-08-12T14:52:10.475Z,1.13
2022-08-12T14:54:55.858Z,1.60
2022-08-12T14:59:57.420Z,1.20
2022-08-12T15:02:21.227Z,1.33
2022-08-12T15:04:55.940Z,1.67
2022-08-12T15:07:33.426Z,1.65
2022-08-12T15:10:13.551Z,1.30
2022-08-12T15:12:41.624Z,1.10
2022-08-12T15:15:11.276Z,1.50
2022-08-12T15:17:39.848Z,1.20
2022-08-12T15:20:32.918Z,1.25
2022-08-12T15:22:59.897Z,1.40
2022-08-12T15:25:28.726Z,1.00
2022-08-12T15:28:04.392Z,1.23
2022-08-12T15:30:37.061Z,1.13
2022-08-12T15:33:12.743Z,0.95
2022-08-12T15:35:50.279Z,1.20
2022-08-12T15:38:24.664Z,1.13
2022-08-12T15:40:53.916Z,1.20
2022-08-12T15:43:52.135Z,1.30
2022-08-12T15:46:15.170Z,1.60
2022-08-12T15:48:46.692Z,1.50
2022-08-12T15:51:57.314Z,1.15
2022-08-12T15:54:33.914Z,1.13
2022-08-12T15:57:08.154Z,1.60
2022-08-12T16:00:03.801Z,1.52
2022-08-12T16:02:29.466Z,1.30
2022-08-12T16:04:59.032Z,1.67
2022-08-12T16:07:30.967Z,1.20
2022-08-12T16:10:05.886Z,1.50
2022-08-12T16:12:39.634Z,1.40
2022-08-12T16:15:08.745Z,1.38
2022-08-12T16:18:09.064Z,1.42
2022-08-12T16:20:33.204Z,1.25
2022-08-12T16:23:36.372Z,1.20
2022-08-12T16:26:06.331Z,1.35
2022-08-12T16:28:43.942Z,1.30
2022-08-12T16:31:22.656Z,1.20
2022-08-12T16:33:58.818Z,1.20
2022-08-12T16:36:30.146Z,1.20
2022-08-12T16:39:02.758Z,1.42
2022-08-12T16:41:37.813Z,1.30
2022-08-12T16:44:08.368Z,1.15
2022-08-12T16:46:37.590Z,1.25
2022-08-12T16:49:09.086Z,1.20
2022-08-12T16:51:46.729Z,1.40
2022-08-12T16:54:18.592Z,1.20
2022-08-12T16:56:54.640Z,1.50
2022-08-12T16:59:52.972Z,1.45
2022-08-12T17:02:18.019Z,1.38
2022-08-12T17:05:04.254Z,1.42
2022-08-12T17:07:36.671Z,1.60
2022-08-12T17:10:09.364Z,1.92
2022-08-12T17:12:40.954Z,1.85
2022-08-12T17:15:41.310Z,1.80
2022-08-12T17:18:42.483Z,1.40
2022-08-12T17:20:49.510Z,1.30
2022-08-12T17:23:19.620Z,1.83
2022-08-12T17:25:53.397Z,1.40
2022-08-12T17:28:22.557Z,1.60
2022-08-12T17:30:59.566Z,1.38
2022-08-12T17:33:33.553Z,1.30
2022-08-12T17:36:05.884Z,1.13
2022-08-12T17:38:35.924Z,0.95
2022-08-12T17:41:23.174Z,1.10
2022-08-12T17:43:58.909Z,1.20
2022-08-12T17:46:33.119Z,1.30
2022-08-12T17:49:18.952Z,1.02
2022-08-12T17:52:02.925Z,1.10
2022-08-12T17:54:32.724Z,2.38
2022-08-12T17:57:16.029Z,1.10
2022-08-12T17:59:48.741Z,1.45
2022-08-12T18:02:29.944Z,1.30
2022-08-12T18:05:04.789Z,1.75
2022-08-12T18:07:39.503Z,1.95
2022-08-12T18:10:08.722Z,1.70
2022-08-12T18:12:38.746Z,1.33
2022-08-12T18:15:11.674Z,1.42
2022-08-12T18:17:59.303Z,1.50
2022-08-12T18:20:29.766Z,1.83
2022-08-12T18:23:01.208Z,1.35
2022-08-12T18:26:14.281Z,1.30
2022-08-12T18:28:43.066Z,1.40
2022-08-12T18:31:13.748Z,1.17
2022-08-12T18:33:44.139Z,1.15
2022-08-12T18:36:22.437Z,1.20
2022-08-12T18:38:56.102Z,1.13
2022-08-12T18:41:34.220Z,1.02
2022-08-12T18:44:09.771Z,1.20
2022-08-12T18:46:54.270Z,1.73
2022-08-12T18:49:39.112Z,1.52
2022-08-12T18:52:11.877Z,1.40
2022-08-12T18:54:48.955Z,1.52
2022-08-12T18:58:06.858Z,1.30
2022-08-12T19:00:21.494Z,1.33
2022-08-12T19:02:51.992Z,1.20
2022-08-12T19:05:53.114Z,1.20
2022-08-12T19:08:13.991Z,1.20
2022-08-12T19:10:50.431Z,2.05
2022-08-12T19:13:39.020Z,2.40
2022-08-12T19:16:11.386Z,1.80
2022-08-12T19:18:44.502Z,1.33
2022-08-12T19:21:15.949Z,1.42
2022-08-12T19:24:05.936Z,1.05
2022-08-12T19:26:34.935Z,1.48
2022-08-12T19:29:05.198Z,1.63
2022-08-12T19:32:03.648Z,1.30
2022-08-12T19:37:38.562Z,1.52
2022-08-12T19:40:30.771Z,1.40
2022-08-12T19:43:02.275Z,1.20
2022-08-12T19:45:48.893Z,1.23
2022-08-12T19:48:19.327Z,1.30
2022-08-12T19:50:52.288Z,1.40
2022-08-12T19:53:22.745Z,1.40
2022-08-12T19:55:53.491Z,1.80
2022-08-12T19:58:23.265Z,1.40
2022-08-12T20:00:54.424Z,1.52
2022-08-12T20:03:40.082Z,1.33
2022-08-12T20:06:21.689Z,1.42
2022-08-12T20:08:56.675Z,1.42
2022-08-12T20:12:09.854Z,2.00
2022-08-12T20:14:17.732Z,1.60
2022-08-12T20:16:52.020Z,2.03
2022-08-12T20:19:52.413Z,1.50
2022-08-12T20:22:23.964Z,1.45
2022-08-12T20:24:55.275Z,2.35
2022-08-12T20:27:29.248Z,1.70
2022-08-12T20:30:14.959Z,2.17
2022-08-12T20:32:54.244Z,2.38
2022-08-12T20:35:24.679Z,1.65
2022-08-12T20:38:07.404Z,2.05
2022-08-12T20:40:48.034Z,1.90
2022-08-12T20:43:19.170Z,1.67
2022-08-12T20:45:57.613Z,1.45
2022-08-12T20:48:29.444Z,1.50
2022-08-12T20:51:04.328Z,1.70
2022-08-12T20:53:58.324Z,1.63
2022-08-12T20:56:30.848Z,1.80
2022-08-12T20:59:01.536Z,1.50
2022-08-12T21:01:46.925Z,1.58
2022-08-12T21:04:35.224Z,1.77
2022-08-12T21:07:09.371Z,1.40
2022-08-12T21:09:42.440Z,1.95
2022-08-12T21:12:37.508Z,1.60
2022-08-12T21:15:23.079Z,1.60
2022-08-12T21:18:09.000Z,1.30
2022-08-12T21:20:50.186Z,1.38
2022-08-12T21:23:21.443Z,1.50
2022-08-12T21:25:52.562Z,1.20
2022-08-12T21:28:27.657Z,1.50
2022-08-12T21:32:35.472Z,1.13
2022-08-12T21:34:07.886Z,1.63
2022-08-12T21:36:43.304Z,1.48
2022-08-12T21:39:21.350Z,1.45
2022-08-12T21:41:52.938Z,1.40
2022-08-12T21:44:24.472Z,1.42
2022-08-12T21:47:21.125Z,1.50
2022-08-12T21:50:02.246Z,1.42
2022-08-12T21:52:36.486Z,1.50
2022-08-12T21:55:08.453Z,1.10
2022-08-12T21:57:53.275Z,1.48
2022-08-12T22:00:35.185Z,1.52
2022-08-12T22:04:01.394Z,1.92
2022-08-12T22:06:31.286Z,1.35
2022-08-12T22:09:15.804Z,1.55
2022-08-12T22:11:57.006Z,1.40
2022-08-12T22:14:30.200Z,1.30
2022-08-12T22:17:01.279Z,1.48
2022-08-12T22:19:34.892Z,1.30
2022-08-12T22:22:05.169Z,1.50
2022-08-12T22:24:33.899Z,1.13
2022-08-12T22:27:07.938Z,1.20
2022-08-12T22:30:11.224Z,1.60
2022-08-12T22:32:50.162Z,1.52
2022-08-12T22:35:55.783Z,1.67
2022-08-12T22:38:25.363Z,1.52
2022-08-12T22:40:55.052Z,1.60
2022-08-12T22:43:58.810Z,1.60
2022-08-12T22:46:52.761Z,1.65
2022-08-12T22:49:37.390Z,1.65
2022-08-12T22:52:12.263Z,1.55
2022-08-12T22:54:59.911Z,1.33
2022-08-12T22:57:49.286Z,2.13
2022-08-12T23:00:27.213Z,1.50
2022-08-12T23:03:03.008Z,1.67
2022-08-12T23:05:56.550Z,1.50
2022-08-12T23:08:22.601Z,1.40
2022-08-12T23:10:53.520Z,1.70
2022-08-12T23:13:43.750Z,1.35
2022-08-12T23:16:28.152Z,1.70
2022-08-12T23:19:11.035Z,2.33
2022-08-12T23:22:04.870Z,1.63
2022-08-12T23:24:55.869Z,1.50
2022-08-12T23:27:51.703Z,2.30
2022-08-12T23:30:32.230Z,1.70
2022-08-12T23:33:13.522Z,1.40
2022-08-12T23:35:58.953Z,1.73
2022-08-12T23:38:32.668Z,1.63
2022-08-12T23:41:02.406Z,1.80
2022-08-12T23:43:39.008Z,1.98
2022-08-12T23:46:10.996Z,1.70
2022-08-12T23:48:40.964Z,1.98
2022-08-12T23:51:22.749Z,1.85
2022-08-12T23:54:00.104Z,1.65
2022-08-12T23:56:29.304Z,1.80
2022-08-12T23:58:58.675Z,1.80
